createdAt,value
2023-04-27T00:01:13.872Z,39.33
2023-04-27T00:03:41.431Z,38.40
2023-04-27T00:06:09.744Z,36.00
2023-04-27T00:08:36.844Z,35.30
2023-04-27T00:11:03.863Z,36.65
2023-04-27T00:13:30.546Z,33.03
2023-04-27T00:15:57.168Z,39.40
2023-04-27T00:18:23.826Z,32.95
2023-04-27T00:20:50.565Z,31.52
2023-04-27T00:23:17.199Z,30.63
2023-04-27T00:25:43.852Z,29.90
2023-04-27T00:28:10.660Z,29.17
2023-04-27T00:30:37.238Z,32.22
2023-04-27T00:33:04.004Z,33.78
2023-04-27T00:35:32.159Z,27.08
2023-04-27T00:37:58.830Z,27.05
2023-04-27T00:40:25.423Z,27.20
2023-04-27T00:42:52.090Z,27.63
2023-04-27T00:45:18.658Z,31.48
2023-04-27T00:47:46.018Z,33.80
2023-04-27T00:50:12.675Z,36.90
2023-04-27T00:52:39.526Z,38.15
2023-04-27T00:55:07.266Z,33.03
2023-04-27T00:57:34.374Z,31.58
2023-04-27T01:00:02.272Z,29.38
2023-04-27T01:02:30.095Z,31.85
2023-04-27T01:04:57.182Z,33.00
2023-04-27T01:07:26.917Z,32.50
2023-04-27T01:09:53.675Z,29.42
2023-04-27T01:12:20.571Z,33.42
2023-04-27T01:14:47.121Z,33.78
2023-04-27T01:17:14.227Z,36.10
2023-04-27T01:19:41.222Z,30.77
2023-04-27T01:22:08.026Z,37.30
2023-04-27T01:24:34.680Z,33.03
2023-04-27T01:27:01.785Z,35.05
2023-04-27T01:29:28.498Z,35.05
2023-04-27T01:31:55.101Z,30.80
2023-04-27T01:34:21.839Z,32.00
2023-04-27T01:36:48.456Z,32.38
2023-04-27T01:39:15.338Z,28.90
2023-04-27T01:41:42.102Z,28.55
2023-04-27T01:44:08.748Z,29.63
2023-04-27T01:46:35.504Z,26.92
2023-04-27T01:49:02.431Z,30.90
2023-04-27T01:51:29.040Z,29.55
2023-04-27T01:53:55.752Z,25.98
2023-04-27T01:56:22.336Z,25.42
2023-04-27T01:58:48.895Z,24.52
2023-04-27T02:01:15.767Z,24.75
2023-04-27T02:03:42.477Z,24.42
2023-04-27T02:06:09.477Z,24.75
2023-04-27T02:08:36.326Z,26.00
2023-04-27T02:11:03.328Z,26.23
2023-04-27T02:13:29.909Z,27.33
2023-04-27T02:15:56.666Z,25.10
2023-04-27T02:18:24.246Z,28.10
2023-04-27T02:20:50.877Z,29.90
2023-04-27T02:23:17.432Z,31.63
2023-04-27T02:25:46.801Z,31.75
2023-04-27T02:28:14.220Z,29.73
2023-04-27T02:30:41.520Z,28.33
2023-04-27T02:33:08.218Z,29.40
2023-04-27T02:35:34.865Z,30.42
2023-04-27T02:38:01.619Z,32.53
2023-04-27T02:40:28.439Z,32.83
2023-04-27T02:42:54.982Z,30.58
2023-04-27T02:45:21.619Z,32.90
2023-04-27T02:47:48.927Z,29.98
2023-04-27T02:50:15.624Z,32.17
2023-04-27T02:52:42.195Z,31.88
2023-04-27T02:55:09.283Z,32.40
2023-04-27T02:57:36.064Z,30.90
2023-04-27T03:00:04.431Z,29.63
2023-04-27T03:02:31.045Z,29.50
2023-04-27T03:04:59.195Z,28.70
2023-04-27T03:07:25.844Z,27.55
2023-04-27T03:09:52.473Z,26.73
2023-04-27T03:12:19.077Z,26.05
2023-04-27T03:14:45.845Z,26.25
2023-04-27T03:17:12.438Z,25.50
2023-04-27T03:19:39.020Z,25.83
2023-04-27T03:22:05.695Z,25.83
2023-04-27T03:24:33.282Z,25.48
2023-04-27T03:26:59.886Z,25.00
2023-04-27T03:29:27.664Z,25.20
2023-04-27T03:31:54.244Z,25.95
2023-04-27T03:34:21.933Z,24.67
2023-04-27T03:36:48.521Z,25.38
2023-04-27T03:39:15.468Z,24.92
2023-04-27T03:41:42.602Z,25.10
2023-04-27T03:44:09.681Z,25.20
2023-04-27T03:46:36.371Z,26.27
2023-04-27T03:49:03.254Z,25.38
2023-04-27T03:51:32.169Z,24.40
2023-04-27T03:53:59.265Z,24.70
2023-04-27T03:56:28.359Z,24.50
2023-04-27T03:58:54.952Z,26.38
2023-04-27T04:01:22.010Z,26.15
2023-04-27T04:03:48.982Z,25.42
2023-04-27T04:06:15.699Z,25.80
2023-04-27T04:08:42.497Z,24.70
2023-04-27T04:11:09.091Z,25.27
2023-04-27T04:13:36.572Z,24.67
2023-04-27T04:16:08.290Z,24.95
2023-04-27T04:18:36.164Z,24.63
2023-04-27T04:21:03.338Z,26.10
2023-04-27T04:23:29.959Z,26.10
2023-04-27T04:25:56.713Z,24.63
2023-04-27T04:28:23.942Z,24.65
2023-04-27T04:30:51.188Z,25.05
2023-04-27T04:33:18.140Z,24.55
2023-04-27T04:35:44.802Z,24.75
2023-04-27T04:38:11.443Z,24.67
2023-04-27T04:40:44.444Z,24.75
2023-04-27T04:43:13.372Z,24.75
2023-04-27T04:45:40.096Z,26.67
2023-04-27T04:48:06.692Z,26.58
2023-04-27T04:50:33.617Z,27.45
2023-04-27T04:53:00.281Z,28.27
2023-04-27T04:55:28.384Z,26.75
2023-04-27T04:57:55.136Z,27.95
2023-04-27T05:00:22.453Z,30.10
2023-04-27T05:02:49.532Z,30.45
2023-04-27T05:05:16.723Z,28.50
2023-04-27T05:07:43.418Z,29.63
2023-04-27T05:10:10.196Z,30.73
2023-04-27T05:12:36.821Z,31.88
2023-04-27T05:15:03.952Z,32.50
2023-04-27T05:17:30.676Z,35.17
2023-04-27T05:19:58.246Z,35.17
2023-04-27T05:22:25.043Z,33.63
2023-04-27T05:24:51.942Z,30.75
2023-04-27T05:27:18.610Z,29.17
2023-04-27T05:29:45.176Z,30.52
2023-04-27T05:32:11.917Z,31.58
2023-04-27T05:34:38.589Z,33.97
2023-04-27T05:37:05.352Z,34.55
2023-04-27T05:39:32.102Z,33.60
2023-04-27T05:41:58.944Z,33.53
2023-04-27T05:44:28.516Z,32.90
2023-04-27T05:46:58.383Z,31.27
2023-04-27T05:49:24.973Z,30.77
2023-04-27T05:51:51.927Z,31.67
2023-04-27T05:54:18.507Z,30.05
2023-04-27T05:56:45.062Z,30.60
2023-04-27T05:59:11.900Z,29.58
2023-04-27T06:01:38.940Z,26.63
2023-04-27T06:04:05.825Z,27.70
2023-04-27T06:06:33.254Z,27.45
2023-04-27T06:09:05.925Z,24.60
2023-04-27T06:11:32.490Z,23.85
2023-04-27T06:13:59.069Z,28.50
2023-04-27T06:16:25.847Z,31.45
2023-04-27T06:18:52.586Z,31.35
2023-04-27T06:21:19.151Z,28.15
2023-04-27T06:23:46.037Z,26.40
2023-04-27T06:26:12.620Z,26.52
2023-04-27T06:28:39.274Z,25.73
2023-04-27T06:31:06.435Z,26.23
2023-04-27T06:33:33.615Z,26.98
2023-04-27T06:36:01.302Z,26.77
2023-04-27T06:38:27.953Z,25.10
2023-04-27T06:40:54.986Z,23.83
2023-04-27T06:43:22.267Z,24.00
2023-04-27T06:45:48.902Z,22.98
2023-04-27T06:48:15.595Z,25.55
2023-04-27T06:50:42.181Z,23.25
2023-04-27T06:53:09.014Z,22.23
2023-04-27T06:55:38.199Z,22.13
2023-04-27T06:58:04.853Z,22.73
2023-04-27T07:00:32.249Z,23.13
2023-04-27T07:02:59.061Z,22.85
2023-04-27T07:05:26.142Z,22.92
2023-04-27T07:07:52.921Z,23.05
2023-04-27T07:10:19.602Z,22.95
2023-04-27T07:12:46.614Z,23.00
2023-04-27T07:15:13.496Z,22.73
2023-04-27T07:17:40.160Z,23.25
2023-04-27T07:20:07.573Z,22.85
2023-04-27T07:22:34.289Z,22.27
2023-04-27T07:25:00.990Z,24.52
2023-04-27T07:27:27.640Z,23.30
2023-04-27T07:29:54.807Z,22.75
2023-04-27T07:32:22.777Z,25.00
2023-04-27T07:34:54.061Z,24.00
2023-04-27T07:37:21.297Z,23.88
2023-04-27T07:39:49.364Z,23.92
2023-04-27T07:42:16.222Z,22.75
2023-04-27T07:44:42.888Z,22.95
2023-04-27T07:47:09.538Z,23.00
2023-04-27T07:49:37.515Z,21.08
2023-04-27T07:52:04.846Z,22.40
2023-04-27T07:54:31.675Z,22.25
2023-04-27T07:56:58.290Z,23.60
2023-04-27T07:59:24.995Z,22.30
2023-04-27T08:01:51.741Z,22.05
2023-04-27T08:04:19.252Z,21.33
2023-04-27T08:06:47.040Z,20.48
2023-04-27T08:09:14.153Z,20.20
2023-04-27T08:11:41.111Z,20.48
2023-04-27T08:14:13.436Z,21.05
2023-04-27T08:16:44.022Z,22.20
2023-04-27T08:19:11.730Z,20.10
2023-04-27T08:21:39.219Z,19.42
2023-04-27T08:24:06.543Z,20.50
2023-04-27T08:26:33.801Z,20.10
2023-04-27T08:29:01.976Z,18.65
2023-04-27T08:31:31.482Z,19.30
2023-04-27T08:33:58.954Z,19.55
2023-04-27T08:36:26.252Z,19.80
2023-04-27T08:38:52.876Z,19.42
2023-04-27T08:41:23.649Z,19.35
2023-04-27T08:43:51.568Z,18.15
2023-04-27T08:46:21.794Z,20.00
2023-04-27T08:48:52.362Z,18.35
2023-04-27T08:51:20.268Z,18.20
2023-04-27T08:53:48.905Z,18.55
2023-04-27T08:56:15.689Z,19.15
2023-04-27T08:58:44.722Z,17.67
2023-04-27T09:01:11.583Z,16.45
2023-04-27T09:03:38.847Z,17.10
2023-04-27T09:06:06.310Z,18.17
2023-04-27T09:08:46.935Z,17.52
2023-04-27T09:11:14.685Z,18.85
2023-04-27T09:13:45.028Z,17.70
2023-04-27T09:16:15.017Z,18.77
2023-04-27T09:18:43.890Z,17.45
2023-04-27T09:21:10.674Z,16.60
2023-04-27T09:23:39.149Z,19.05
2023-04-27T09:26:09.988Z,17.65
2023-04-27T09:28:41.331Z,16.70
2023-04-27T09:31:09.623Z,17.90
2023-04-27T09:33:36.764Z,17.70
2023-04-27T09:36:07.621Z,17.13
2023-04-27T09:38:34.346Z,17.15
2023-04-27T09:41:01.680Z,17.17
2023-04-27T09:43:29.997Z,16.73
2023-04-27T09:45:57.693Z,15.52
2023-04-27T09:48:25.701Z,16.45
2023-04-27T09:50:52.975Z,15.60
2023-04-27T09:53:51.828Z,15.27
2023-04-27T09:56:55.968Z,15.13
2023-04-27T09:59:54.758Z,14.45
2023-04-27T10:02:24.862Z,14.80
2023-04-27T10:05:16.734Z,15.07
2023-04-27T10:07:45.347Z,15.40
2023-04-27T10:10:20.384Z,14.80
2023-04-27T10:12:58.075Z,14.82
2023-04-27T10:15:28.785Z,14.98
2023-04-27T10:17:58.774Z,15.57
2023-04-27T10:20:33.645Z,15.90
2023-04-27T10:23:00.961Z,14.55
2023-04-27T10:25:38.296Z,14.02
2023-04-27T10:28:05.132Z,13.88
2023-04-27T10:30:37.133Z,14.23
2023-04-27T10:33:09.520Z,14.50
2023-04-27T10:35:54.694Z,13.35
2023-04-27T10:38:28.797Z,13.27
2023-04-27T10:41:03.047Z,13.40
2023-04-27T10:43:31.939Z,12.75
2023-04-27T10:46:12.903Z,14.40
2023-04-27T10:48:41.212Z,14.07
2023-04-27T10:51:07.948Z,14.00
2023-04-27T10:53:36.196Z,13.93
2023-04-27T10:56:05.211Z,14.32
2023-04-27T10:58:41.559Z,12.68
2023-04-27T11:01:25.640Z,14.20
2023-04-27T11:03:57.165Z,13.63
2023-04-27T11:06:23.852Z,13.60
2023-04-27T11:08:51.516Z,12.30
2023-04-27T11:11:18.270Z,12.85
2023-04-27T11:13:44.935Z,12.93
2023-04-27T11:16:11.563Z,13.88
2023-04-27T11:18:38.602Z,12.88
2023-04-27T11:21:16.601Z,13.18
2023-04-27T11:23:43.745Z,14.40
2023-04-27T11:26:14.885Z,14.07
2023-04-27T11:28:56.891Z,13.63
2023-04-27T11:31:23.537Z,13.25
2023-04-27T11:33:51.048Z,12.60
2023-04-27T11:36:23.102Z,14.55
2023-04-27T11:38:49.946Z,14.40
2023-04-27T11:41:16.724Z,14.68
2023-04-27T11:43:47.775Z,14.45
2023-04-27T11:46:14.468Z,12.70
2023-04-27T11:48:41.303Z,13.20
2023-04-27T11:51:10.867Z,13.98
2023-04-27T11:53:39.917Z,13.43
2023-04-27T11:56:13.680Z,13.70
2023-04-27T11:58:40.470Z,13.50
2023-04-27T12:01:10.386Z,13.18
2023-04-27T12:03:37.845Z,13.52
2023-04-27T12:06:21.701Z,13.18
2023-04-27T12:08:51.551Z,13.82
2023-04-27T12:11:18.620Z,12.80
2023-04-27T12:13:45.176Z,13.15
2023-04-27T12:16:11.860Z,13.52
2023-04-27T12:18:38.394Z,13.82
2023-04-27T12:23:34.772Z,14.82
2023-04-27T12:26:01.431Z,12.75
2023-04-27T12:28:27.993Z,14.15
2023-04-27T12:30:57.983Z,12.82
2023-04-27T12:33:24.804Z,13.45
2023-04-27T12:35:52.076Z,12.93
2023-04-27T12:38:18.679Z,13.02
2023-04-27T12:40:45.250Z,11.90
2023-04-27T12:43:12.903Z,13.65
2023-04-27T12:45:39.629Z,12.90
2023-04-27T12:48:06.556Z,13.25
2023-04-27T12:50:33.228Z,12.85
2023-04-27T12:53:00.314Z,14.07
2023-04-27T12:55:33.846Z,13.43
2023-04-27T12:58:01.375Z,13.05
2023-04-27T13:00:29.542Z,11.88
2023-04-27T13:02:56.967Z,11.45
2023-04-27T13:05:23.846Z,11.80
2023-04-27T13:07:50.447Z,11.40
2023-04-27T13:10:17.086Z,11.45
2023-04-27T13:12:43.736Z,12.27
2023-04-27T13:15:10.815Z,11.25
2023-04-27T13:17:37.507Z,11.18
2023-04-27T13:20:04.376Z,9.93
2023-04-27T13:22:30.941Z,10.07
2023-04-27T13:24:59.048Z,10.65
2023-04-27T13:27:28.381Z,11.80
2023-04-27T13:29:55.247Z,9.95
2023-04-27T13:32:22.633Z,12.00
2023-04-27T13:34:49.405Z,10.05
2023-04-27T13:37:16.622Z,10.35
2023-04-27T13:39:43.304Z,9.95
2023-04-27T13:42:10.159Z,9.98
2023-04-27T13:44:36.916Z,10.43
2023-04-27T13:47:03.592Z,9.90
2023-04-27T13:49:30.330Z,10.55
2023-04-27T13:51:56.971Z,10.20
2023-04-27T13:54:23.665Z,10.70
2023-04-27T13:56:50.242Z,10.23
2023-04-27T13:59:17.224Z,10.98
2023-04-27T14:01:44.018Z,11.15
2023-04-27T14:04:10.770Z,10.13
2023-04-27T14:06:37.580Z,10.10
2023-04-27T14:09:04.837Z,10.45
2023-04-27T14:11:37.217Z,9.82
2023-04-27T14:14:08.910Z,9.88
2023-04-27T14:16:35.743Z,9.95
2023-04-27T14:19:02.385Z,10.98
2023-04-27T14:21:28.965Z,11.13
2023-04-27T14:23:55.497Z,9.90
2023-04-27T14:26:22.044Z,10.75
2023-04-27T14:28:48.576Z,10.27
2023-04-27T14:31:15.147Z,10.93
2023-04-27T14:33:41.694Z,10.65
2023-04-27T14:36:08.558Z,10.65
2023-04-27T14:38:35.072Z,10.18
2023-04-27T14:41:03.043Z,10.23
2023-04-27T14:43:29.673Z,11.48
2023-04-27T14:46:02.099Z,12.20
2023-04-27T14:48:35.056Z,11.60
2023-04-27T14:51:02.325Z,10.82
2023-04-27T14:53:28.948Z,10.95
2023-04-27T14:55:55.530Z,10.25
2023-04-27T14:58:22.156Z,10.70
2023-04-27T15:00:50.896Z,10.77
2023-04-27T15:03:17.610Z,10.45
2023-04-27T15:05:44.396Z,9.93
2023-04-27T15:08:11.634Z,9.73
2023-04-27T15:10:38.227Z,10.45
2023-04-27T15:13:04.761Z,9.60
2023-04-27T15:15:31.477Z,9.85
2023-04-27T15:17:59.077Z,11.00
2023-04-27T15:20:25.692Z,10.35
2023-04-27T15:22:52.311Z,10.10
2023-04-27T15:25:19.198Z,10.18
2023-04-27T15:27:45.805Z,10.07
2023-04-27T15:30:14.265Z,9.90
2023-04-27T15:32:41.110Z,9.75
2023-04-27T15:35:08.371Z,9.98
2023-04-27T15:37:36.734Z,10.25
2023-04-27T15:40:04.274Z,10.70
2023-04-27T15:42:30.974Z,10.27
2023-04-27T15:44:57.960Z,11.02
2023-04-27T15:47:24.511Z,10.15
2023-04-27T15:49:57.393Z,11.68
2023-04-27T15:52:26.888Z,10.75
2023-04-27T15:54:53.717Z,10.48
2023-04-27T15:57:20.499Z,10.57
2023-04-27T15:59:47.085Z,10.82
2023-04-27T16:02:13.838Z,11.35
2023-04-27T16:04:40.675Z,11.55
2023-04-27T16:07:07.447Z,11.13
2023-04-27T16:09:34.360Z,11.73
2023-04-27T16:12:01.938Z,10.80
2023-04-27T16:14:28.563Z,10.73
2023-04-27T16:16:59.466Z,12.43
2023-04-27T16:19:27.509Z,10.38
2023-04-27T16:21:54.198Z,10.10
2023-04-27T16:24:21.286Z,10.40
2023-04-27T16:26:48.236Z,10.60
2023-04-27T16:29:15.079Z,11.00
2023-04-27T16:31:42.766Z,11.07
2023-04-27T16:34:09.608Z,10.73
2023-04-27T16:36:36.603Z,10.63
2023-04-27T16:39:05.066Z,11.85
2023-04-27T16:41:31.863Z,10.32
2023-04-27T16:43:58.464Z,10.52
2023-04-27T16:46:25.137Z,11.13
2023-04-27T16:48:51.802Z,9.98
2023-04-27T16:51:18.402Z,10.85
2023-04-27T16:53:45.027Z,9.73
2023-04-27T16:56:13.466Z,9.80
2023-04-27T16:58:40.969Z,10.88
2023-04-27T17:01:07.909Z,11.73
2023-04-27T17:03:36.178Z,10.88
2023-04-27T17:06:03.453Z,10.13
2023-04-27T17:08:30.171Z,11.50
2023-04-27T17:10:56.767Z,11.80
2023-04-27T17:13:23.609Z,10.50
2023-04-27T17:15:50.631Z,12.02
2023-04-27T17:18:17.860Z,10.77
2023-04-27T17:20:44.493Z,11.57
2023-04-27T17:23:11.084Z,11.15
2023-04-27T17:25:37.664Z,10.00
2023-04-27T17:28:04.346Z,10.40
2023-04-27T17:30:31.258Z,10.35
2023-04-27T17:32:57.962Z,11.00
2023-04-27T17:35:24.732Z,10.98
2023-04-27T17:37:52.036Z,11.10
2023-04-27T17:40:20.999Z,10.48
2023-04-27T17:42:47.809Z,11.00
2023-04-27T17:45:14.868Z,10.48
2023-04-27T17:47:41.659Z,10.35
2023-04-27T17:50:08.857Z,11.20
2023-04-27T17:52:35.797Z,12.45
2023-04-27T17:55:02.965Z,10.40
2023-04-27T17:57:29.634Z,10.38
2023-04-27T17:59:56.176Z,11.30
2023-04-27T18:02:23.276Z,12.00
2023-04-27T18:04:50.073Z,10.80
2023-04-27T18:07:18.626Z,10.93
2023-04-27T18:09:45.679Z,12.02
2023-04-27T18:12:12.607Z,11.95
2023-04-27T18:14:39.433Z,12.18
2023-04-27T18:17:06.314Z,11.85
2023-04-27T18:19:32.891Z,12.70
2023-04-27T18:21:59.538Z,12.18
2023-04-27T18:24:26.153Z,13.05
2023-04-27T18:26:52.889Z,12.75
2023-04-27T18:29:19.442Z,12.93
2023-04-27T18:31:46.299Z,13.75
2023-04-27T18:34:14.725Z,14.40
2023-04-27T18:36:41.355Z,13.98
2023-04-27T18:39:08.002Z,14.30
2023-04-27T18:41:34.653Z,14.93
2023-04-27T18:44:07.088Z,14.98
2023-04-27T18:46:34.683Z,15.85
2023-04-27T18:49:02.159Z,15.75
2023-04-27T18:51:29.385Z,16.52
2023-04-27T18:53:57.513Z,18.75
2023-04-27T18:56:24.278Z,16.83
2023-04-27T18:58:51.572Z,16.85
2023-04-27T19:01:26.063Z,18.60
2023-04-27T19:03:53.586Z,18.80
2023-04-27T19:06:21.217Z,18.38
2023-04-27T19:08:48.287Z,19.65
2023-04-27T19:11:17.899Z,20.10
2023-04-27T19:13:47.753Z,20.45
2023-04-27T19:16:15.542Z,20.65
2023-04-27T19:18:42.178Z,21.23
2023-04-27T19:21:10.057Z,22.48
2023-04-27T19:23:36.744Z,21.58
2023-04-27T19:26:12.452Z,22.77
2023-04-27T19:28:40.131Z,23.88
2023-04-27T19:31:07.897Z,22.17
2023-04-27T19:33:34.580Z,22.13
2023-04-27T19:36:01.166Z,20.65
2023-04-27T19:38:27.856Z,20.63
2023-04-27T19:40:54.430Z,20.92
2023-04-27T19:43:21.743Z,21.48
2023-04-27T19:45:49.293Z,21.02
2023-04-27T19:48:16.165Z,21.80
2023-04-27T19:50:43.433Z,20.98
2023-04-27T19:53:10.944Z,21.83
2023-04-27T19:55:37.862Z,21.17
2023-04-27T19:58:04.585Z,21.45
2023-04-27T20:00:31.169Z,21.83
2023-04-27T20:02:57.997Z,22.35
2023-04-27T20:05:25.160Z,22.33
2023-04-27T20:07:52.012Z,23.42
2023-04-27T20:10:18.717Z,25.35
2023-04-27T20:12:56.223Z,28.73
2023-04-27T20:15:24.878Z,24.05
2023-04-27T20:17:52.688Z,26.08
2023-04-27T20:20:19.612Z,27.08
2023-04-27T20:22:46.200Z,26.90
2023-04-27T20:25:14.611Z,30.08
2023-04-27T20:27:41.642Z,30.52
2023-04-27T20:30:08.977Z,30.05
2023-04-27T20:32:36.345Z,30.27
2023-04-27T20:35:04.832Z,32.30
2023-04-27T20:37:32.417Z,34.95
2023-04-27T20:39:59.456Z,35.42
2023-04-27T20:42:26.096Z,34.65
2023-04-27T20:44:54.871Z,35.20
2023-04-27T20:47:21.949Z,33.60
2023-04-27T20:49:48.714Z,33.85
2023-04-27T20:52:15.487Z,33.80
2023-04-27T20:54:42.412Z,30.20
2023-04-27T20:57:13.489Z,29.65
2023-04-27T20:59:41.152Z,29.45
2023-04-27T21:02:08.241Z,29.02
2023-04-27T21:04:34.957Z,37.83
2023-04-27T21:07:01.609Z,40.60
2023-04-27T21:09:28.257Z,38.15
2023-04-27T21:11:54.843Z,46.53
2023-04-27T21:14:21.457Z,48.08
2023-04-27T21:16:48.139Z,51.85
2023-04-27T21:19:16.543Z,51.08
2023-04-27T21:21:43.266Z,50.78
2023-04-27T21:24:09.867Z,56.53
2023-04-27T21:26:36.684Z,60.55
2023-04-27T21:29:05.622Z,62.42
2023-04-27T21:31:33.278Z,61.53
2023-04-27T21:34:00.127Z,64.65
2023-04-27T21:36:26.794Z,65.60
2023-04-27T21:38:53.434Z,66.18
2023-04-27T21:41:19.985Z,69.72
2023-04-27T21:43:46.750Z,69.53
2023-04-27T21:46:13.399Z,71.57
2023-04-27T21:48:39.991Z,73.95
2023-04-27T21:51:06.568Z,73.05
2023-04-27T21:53:33.118Z,70.97
2023-04-27T21:56:00.064Z,69.70
2023-04-27T21:58:26.777Z,67.53
2023-04-27T22:00:53.344Z,64.18
2023-04-27T22:03:20.110Z,66.88
2023-04-27T22:05:48.942Z,60.03
2023-04-27T22:08:17.357Z,58.67
2023-04-27T22:10:45.204Z,58.33
2023-04-27T22:15:41.385Z,46.58
2023-04-27T22:18:08.120Z,47.90
2023-04-27T22:20:35.079Z,49.22
2023-04-27T22:23:01.825Z,47.03
2023-04-27T22:25:28.481Z,45.20
2023-04-27T22:27:55.113Z,42.22
2023-04-27T22:30:21.753Z,42.15
2023-04-27T22:32:48.541Z,35.75
2023-04-27T22:35:25.332Z,35.10
2023-04-27T22:37:53.629Z,35.97
2023-04-27T22:40:20.358Z,32.45
2023-04-27T22:42:46.901Z,31.65
2023-04-27T22:45:13.661Z,30.55
2023-04-27T22:47:41.375Z,28.27
2023-04-27T22:50:08.716Z,26.05
2023-04-27T22:52:37.335Z,24.52
2023-04-27T22:55:04.519Z,26.48
2023-04-27T22:57:31.507Z,24.38
2023-04-27T22:59:58.134Z,23.50
2023-04-27T23:02:24.843Z,24.42
2023-04-27T23:04:51.571Z,24.67
2023-04-27T23:07:18.278Z,24.42
2023-04-27T23:09:45.819Z,26.02
2023-04-27T23:12:12.506Z,24.27
2023-04-27T23:14:40.558Z,25.23
2023-04-27T23:17:07.531Z,24.98
2023-04-27T23:19:34.703Z,25.70
2023-04-27T23:22:01.817Z,25.55
2023-04-27T23:24:31.539Z,25.13
2023-04-27T23:26:58.514Z,24.80
2023-04-27T23:29:25.484Z,25.17
2023-04-27T23:31:52.114Z,25.75
2023-04-27T23:34:18.876Z,26.67
2023-04-27T23:36:45.433Z,24.77
2023-04-27T23:39:12.294Z,25.05
2023-04-27T23:41:38.818Z,26.13
2023-04-27T23:44:05.366Z,26.02
2023-04-27T23:46:32.007Z,24.60
2023-04-27T23:48:58.614Z,26.05
2023-04-27T23:51:25.292Z,24.95
2023-04-27T23:53:51.880Z,24.48
2023-04-27T23:56:19.349Z,25.15
2023-04-27T23:58:46.044Z,25.10
